createdAt,value
2024-04-26T00:00:03.378Z,100.00
2024-04-26T00:02:37.607Z,100.00
2024-04-26T00:05:10.676Z,100.00
2024-04-26T00:07:43.734Z,100.00
2024-04-26T00:10:17.201Z,100.00
2024-04-26T00:12:50.790Z,100.00
2024-04-26T00:15:23.912Z,100.00
2024-04-26T00:17:57.040Z,100.00
2024-04-26T00:20:30.193Z,100.00
2024-04-26T00:23:03.334Z,100.00
2024-04-26T00:25:36.358Z,100.00
2024-04-26T00:28:11.961Z,100.00
2024-04-26T00:30:45.035Z,100.00
2024-04-26T00:33:18.162Z,100.00
2024-04-26T00:35:51.599Z,100.00
2024-04-26T00:38:24.671Z,100.00
2024-04-26T00:40:57.684Z,100.00
2024-04-26T00:43:30.724Z,100.00
2024-04-26T00:46:05.135Z,100.00
2024-04-26T00:48:38.672Z,100.00
2024-04-26T00:51:11.978Z,100.00
2024-04-26T00:53:45.641Z,100.00
2024-04-26T00:56:18.806Z,100.00
2024-04-26T00:58:54.813Z,100.00
2024-04-26T01:01:27.993Z,100.00
2024-04-26T01:04:01.059Z,100.00
2024-04-26T01:06:34.073Z,100.00
2024-04-26T01:09:07.738Z,100.00
2024-04-26T01:11:41.123Z,100.00
2024-04-26T01:14:14.582Z,100.00
2024-04-26T01:16:47.594Z,100.00
2024-04-26T01:19:21.120Z,100.00
2024-04-26T01:22:10.230Z,100.00
2024-04-26T01:24:43.155Z,100.00
2024-04-26T01:27:16.336Z,100.00
2024-04-26T01:29:49.523Z,100.00
2024-04-26T01:32:22.878Z,100.00
2024-04-26T01:34:56.201Z,100.00
2024-04-26T01:37:31.314Z,100.00
2024-04-26T01:40:05.006Z,100.00
2024-04-26T01:42:38.207Z,100.00
2024-04-26T01:45:11.282Z,100.00
2024-04-26T01:47:44.566Z,100.00
2024-04-26T01:50:17.871Z,100.00
2024-04-26T01:52:52.738Z,100.00
2024-04-26T01:55:25.971Z,100.00
2024-04-26T01:57:59.142Z,100.00
2024-04-26T02:00:32.133Z,100.00
2024-04-26T02:03:05.539Z,100.00
2024-04-26T02:05:38.825Z,100.00
2024-04-26T02:08:12.057Z,100.00
2024-04-26T02:10:45.263Z,100.00
2024-04-26T02:13:18.300Z,100.00
2024-04-26T02:15:51.429Z,100.00
2024-04-26T02:18:24.545Z,100.00
2024-04-26T02:20:57.788Z,100.00
2024-04-26T02:23:30.931Z,100.00
2024-04-26T02:26:05.174Z,100.00
2024-04-26T02:28:38.109Z,100.00
2024-04-26T02:31:12.718Z,100.00
2024-04-26T02:33:45.927Z,100.00
2024-04-26T02:36:18.988Z,100.00
2024-04-26T02:38:52.044Z,100.00
2024-04-26T02:41:26.519Z,100.00
2024-04-26T02:44:00.698Z,100.00
2024-04-26T02:46:36.919Z,100.00
2024-04-26T02:49:11.216Z,100.00
2024-04-26T02:51:44.322Z,100.00
2024-04-26T02:54:20.131Z,100.00
2024-04-26T02:56:57.354Z,100.00
2024-04-26T02:59:33.811Z,100.00
2024-04-26T03:02:07.063Z,100.00
2024-04-26T03:04:41.643Z,100.00
2024-04-26T03:07:15.149Z,100.00
2024-04-26T03:09:51.983Z,100.00
2024-04-26T03:12:28.255Z,100.00
2024-04-26T03:15:26.709Z,100.00
2024-04-26T03:18:00.321Z,100.00
2024-04-26T03:20:36.080Z,100.00
2024-04-26T03:23:11.439Z,100.00
2024-04-26T03:25:47.186Z,100.00
2024-04-26T03:28:27.990Z,100.00
2024-04-26T04:06:30.839Z,100.00
2024-04-26T04:24:52.976Z,100.00
2024-04-26T04:26:11.471Z,100.00
2024-04-26T04:34:02.931Z,100.00
2024-04-26T04:48:30.840Z,100.00
2024-04-26T04:51:34.914Z,100.00
2024-04-26T04:54:54.258Z,100.00
2024-04-26T04:57:55.467Z,100.00
2024-04-26T05:00:49.152Z,100.00
2024-04-26T05:04:21.388Z,100.00
2024-04-26T05:06:39.202Z,100.00
2024-04-26T05:09:46.850Z,100.00
2024-04-26T05:12:51.629Z,100.00
2024-04-26T05:15:48.405Z,100.00
2024-04-26T05:18:52.871Z,100.00
2024-04-26T05:21:40.828Z,100.00
2024-04-26T05:24:28.964Z,100.00
2024-04-26T05:27:18.932Z,100.00
2024-04-26T05:37:43.886Z,100.00
2024-04-26T05:43:25.705Z,100.00
2024-04-26T05:47:24.326Z,100.00
2024-04-26T05:50:50.770Z,100.00
2024-04-26T05:53:11.588Z,100.00
2024-04-26T05:55:51.354Z,100.00
2024-04-26T05:58:40.232Z,100.00
2024-04-26T06:01:18.344Z,100.00
2024-04-26T06:04:02.876Z,100.00
2024-04-26T06:06:46.103Z,100.00
2024-04-26T06:09:32.008Z,100.00
2024-04-26T06:12:28.607Z,100.00
2024-04-26T06:15:10.917Z,100.00
2024-04-26T06:18:24.604Z,100.00
2024-04-26T06:24:07.497Z,100.00
2024-04-26T06:27:22.766Z,100.00
2024-04-26T06:30:22.575Z,100.00
2024-04-26T06:33:57.040Z,100.00
2024-04-26T06:59:34.200Z,100.00
2024-04-26T07:02:17.176Z,100.00
2024-04-26T07:05:17.034Z,100.00
2024-04-26T09:44:06.665Z,87.01
2024-04-26T09:46:50.939Z,89.18
2024-04-26T09:49:30.328Z,86.46
2024-04-26T09:52:18.413Z,84.10
2024-04-26T09:55:00.029Z,80.29
2024-04-26T09:57:47.445Z,80.42
2024-04-26T10:00:24.801Z,77.51
2024-04-26T10:03:16.563Z,82.08
2024-04-26T10:06:04.120Z,81.11
2024-04-26T10:08:37.801Z,76.32
2024-04-26T10:11:25.474Z,78.35
2024-04-26T10:14:06.448Z,80.09
2024-04-26T10:16:46.446Z,79.16
2024-04-26T10:19:35.516Z,78.65
2024-04-26T10:22:11.397Z,82.65
2024-04-26T10:24:54.316Z,75.24
2024-04-26T10:27:44.777Z,75.63
2024-04-26T10:30:25.600Z,78.86
2024-04-26T10:33:02.490Z,74.02
2024-04-26T10:36:53.165Z,74.57
2024-04-26T10:39:51.202Z,70.57
2024-04-26T10:42:26.844Z,72.18
2024-04-26T10:45:28.764Z,74.67
2024-04-26T10:48:04.677Z,73.83
2024-04-26T10:50:40.790Z,71.82
2024-04-26T10:54:05.696Z,75.69
2024-04-26T10:56:24.880Z,71.36
2024-04-26T10:58:59.135Z,70.20
2024-04-26T11:01:34.965Z,71.10
2024-04-26T11:04:21.903Z,72.70
2024-04-26T11:06:55.232Z,71.83
2024-04-26T11:09:38.118Z,66.54
2024-04-26T11:13:12.483Z,67.16
2024-04-26T11:16:17.779Z,69.79
2024-04-26T11:18:58.936Z,69.11
2024-04-26T11:30:11.456Z,57.71
2024-04-26T11:38:52.338Z,62.97
2024-04-26T11:49:29.667Z,58.50
2024-04-26T11:59:22.470Z,54.19
2024-04-26T12:06:56.884Z,53.78
2024-04-26T12:10:21.551Z,53.51
2024-04-26T12:13:08.347Z,53.67
2024-04-26T12:19:25.801Z,51.27
2024-04-26T12:22:57.506Z,56.07
2024-04-26T12:32:40.380Z,53.80
2024-04-26T12:36:13.478Z,49.59
2024-04-26T12:39:02.655Z,49.92
2024-04-26T12:42:21.498Z,52.09
2024-04-26T12:45:03.334Z,49.15
2024-04-26T12:48:56.373Z,50.02
2024-04-26T12:51:49.273Z,45.17
2024-04-26T12:56:30.863Z,52.23
2024-04-26T12:59:36.309Z,50.46
2024-04-26T13:07:01.886Z,49.56
2024-04-26T13:09:45.570Z,50.85
2024-04-26T13:19:30.032Z,48.75
2024-04-26T13:23:44.410Z,52.45
2024-04-26T13:25:41.945Z,52.92
2024-04-26T13:29:18.112Z,54.13
2024-04-26T13:31:52.384Z,49.21
2024-04-26T13:34:54.807Z,51.52
2024-04-26T13:37:32.116Z,48.69
2024-04-26T13:40:06.338Z,46.66
2024-04-26T13:42:39.548Z,49.36
2024-04-26T13:45:13.746Z,48.00
2024-04-26T13:47:50.430Z,49.15
2024-04-26T13:50:23.429Z,49.24
2024-04-26T13:53:15.469Z,50.00
2024-04-26T13:55:48.507Z,48.55
2024-04-26T13:58:25.297Z,46.36
2024-04-26T14:00:58.315Z,48.92
2024-04-26T14:03:31.542Z,46.24
2024-04-26T14:06:05.662Z,45.40
2024-04-26T14:08:39.756Z,46.53
2024-04-26T19:32:12.536Z,92.10
2024-04-26T19:35:15.980Z,97.25
2024-04-26T19:39:22.986Z,98.09
2024-04-26T19:53:54.543Z,100.00
2024-04-26T19:55:34.786Z,100.00
2024-04-26T19:57:46.373Z,100.00
2024-04-26T20:26:56.866Z,100.00
2024-04-26T20:33:19.671Z,100.00
2024-04-26T20:36:34.059Z,100.00
2024-04-26T20:40:04.369Z,100.00
2024-04-26T20:44:02.440Z,100.00
2024-04-26T21:01:27.493Z,100.00
2024-04-26T21:11:53.085Z,100.00
2024-04-26T21:21:26.918Z,100.00
2024-04-26T21:30:16.530Z,100.00
2024-04-26T21:34:35.231Z,100.00
2024-04-26T21:37:38.888Z,100.00
2024-04-26T21:43:53.522Z,100.00
2024-04-26T21:54:38.222Z,100.00
2024-04-26T21:57:17.193Z,100.00
2024-04-26T22:00:00.352Z,100.00
2024-04-26T22:02:52.948Z,100.00
2024-04-26T22:05:36.868Z,100.00
2024-04-26T22:08:19.128Z,100.00
2024-04-26T22:11:20.816Z,100.00
2024-04-26T22:14:12.776Z,100.00
2024-04-26T22:17:33.166Z,100.00
2024-04-26T22:20:55.733Z,100.00
2024-04-26T22:24:10.254Z,100.00
2024-04-26T22:27:02.785Z,100.00
2024-04-26T22:29:58.675Z,100.00
2024-04-26T22:33:03.485Z,100.00
2024-04-26T22:39:53.903Z,100.00
2024-04-26T22:42:37.981Z,100.00
2024-04-26T22:46:02.560Z,100.00
2024-04-26T22:51:51.892Z,100.00
2024-04-26T22:54:33.177Z,100.00
2024-04-26T22:57:30.267Z,100.00
2024-04-26T23:00:22.981Z,100.00
2024-04-26T23:03:42.032Z,100.00
2024-04-26T23:06:54.757Z,100.00
2024-04-26T23:10:04.473Z,100.00
2024-04-26T23:17:09.661Z,100.00
2024-04-26T23:20:18.114Z,100.00
2024-04-26T23:23:06.724Z,100.00
2024-04-26T23:26:06.744Z,100.00
2024-04-26T23:28:41.402Z,100.00
2024-04-26T23:31:25.332Z,100.00
2024-04-26T23:34:22.014Z,100.00
2024-04-26T23:37:41.606Z,100.00
2024-04-26T23:44:42.353Z,100.00
